Nord Nanami — 3EWR2 — position and weather

sailwx.info

Track history (hours):
 
Tides and Currents Weather Stations Pressure Air Temp Water Temp Dewpoint Dewpoint Depression Visibility Wind Speed Wind Dir Waves Ship Positions

Nord Nanami

Last reported at 2016-Jan-29 12:21 UTC. Time now 2016-Feb-07 13:09 UTC.
Position N 10°60' W 062°03'.
Warning: this ship's position is 9 days out of date.

Length 180 m; draft 8.5 m.

Type: Cargo ship. MMSI: 373694000.

Date/timePositionNaut miles runAvg speedWind from/ knotsBaromVisibWave heightAir tempDewpointWater temp
2016-Jan-29 12:21N 10°60' W 062°03'1113.6
2016-Jan-29 11:33N 11°00' W 061°52'1312.9
2016-Jan-29 10:33N 11°00' W 061°39'1414.1
2016-Jan-29 09:33N 11°00' W 061°25'  
2016-Jan-20 04:33N 27°44' W 015°24'1211.7
2016-Jan-20 03:32N 27°55' W 015°19'1212.7
2016-Jan-20 02:33N 28°07' W 015°21'3 2.4
2016-Jan-20 01:22N 28°07' W 015°25'0 0.0
2016-Jan-20 00:25N 28°07' W 015°25'0 0.0
2016-Jan-19 23:25N 28°07' W 015°25'0 0.1
2016-Jan-19 22:33N 28°07' W 015°25'2 1.9
2016-Jan-19 21:33N 28°08' W 015°23'1110.8
2016-Jan-19 20:33N 28°15' W 015°14'1312.7
2016-Jan-19 19:33N 28°25' W 015°05'1313.0
2016-Jan-19 18:33N 28°35' W 014°55'1312.8
2016-Jan-19 17:33N 28°44' W 014°45'1512.9
2016-Jan-19 16:24N 28°56' W 014°34'1113.0
2016-Jan-19 15:33N 29°04' W 014°26'1713.1
2016-Jan-19 14:16N 29°17' W 014°14'913.0
2016-Jan-19 13:33N 29°24' W 014°07'1312.9
2016-Jan-19 12:31N 29°33' W 013°55'  
Track history (hours):
 
Tides and Currents Weather Stations Pressure Air Temp Water Temp Dewpoint Dewpoint Depression Visibility Wind Speed Wind Dir Waves Ship Positions

Nord Nanami

Last reported at 2016-Jan-29 12:21 UTC. Time now 2016-Feb-07 13:09 UTC.
Position N 10°60' W 062°03'.
Warning: this ship's position is 9 days out of date.

Length 180 m; draft 8.5 m.

Type: Cargo ship. MMSI: 373694000.

Date/timePositionNaut miles runAvg speedWind from/ knotsBaromVisibWave heightAir tempDewpointWater temp
2016-Jan-29 12:21N 10°60' W 062°03'1113.6
2016-Jan-29 11:33N 11°00' W 061°52'1312.9
2016-Jan-29 10:33N 11°00' W 061°39'1414.1
2016-Jan-29 09:33N 11°00' W 061°25'  
2016-Jan-20 04:33N 27°44' W 015°24'1211.7
2016-Jan-20 03:32N 27°55' W 015°19'1212.7
2016-Jan-20 02:33N 28°07' W 015°21'3 2.4
2016-Jan-20 01:22N 28°07' W 015°25'0 0.0
2016-Jan-20 00:25N 28°07' W 015°25'0 0.0
2016-Jan-19 23:25N 28°07' W 015°25'0 0.1
2016-Jan-19 22:33N 28°07' W 015°25'2 1.9
2016-Jan-19 21:33N 28°08' W 015°23'1110.8
2016-Jan-19 20:33N 28°15' W 015°14'1312.7
2016-Jan-19 19:33N 28°25' W 015°05'1313.0
2016-Jan-19 18:33N 28°35' W 014°55'1312.8
2016-Jan-19 17:33N 28°44' W 014°45'1512.9
2016-Jan-19 16:24N 28°56' W 014°34'1113.0
2016-Jan-19 15:33N 29°04' W 014°26'1713.1
2016-Jan-19 14:16N 29°17' W 014°14'913.0
2016-Jan-19 13:33N 29°24' W 014°07'1312.9
2016-Jan-19 12:31N 29°33' W 013°55'  

Dump ship's entire track history